Time;durP1;ratioP1;P1;durP2;ratioP2;P2;SDS_P1;SDS_P2;PMS_P1;PMS_P2;Temp;Humidity;BMP_temperature;BMP_pressure;BME280_temperature;BME280_humidity;BME280_pressure;Samples;Min_cycle;Max_cycle;Signal;HPM_P1;HPM_P2
2022/01/16 00:00:26;;;;;;;23.73;15.15;;;1.80;99.90;;;;;;5049467;28;20202;-86
2022/01/16 00:05:39;;;;;;;32.88;17.13;;;1.80;99.90;;;;;;5053393;28;20233;-83
2022/01/16 00:08:07;;;;;;;30.58;18.20;;;1.70;99.90;;;;;;5052711;28;20299;-85
2022/01/16 00:10:33;;;;;;;34.25;16.75;;;1.60;99.90;;;;;;5052523;28;20202;-85
2022/01/16 00:13:00;;;;;;;28.92;17.58;;;1.60;99.90;;;;;;5051908;28;20218;-86
2022/01/16 00:15:28;;;;;;;31.58;17.98;;;1.60;99.90;;;;;;5051986;28;20195;-85
2022/01/16 00:17:59;;;;;;;30.73;19.75;;;1.60;99.90;;;;;;5050863;28;20231;-85
2022/01/16 00:20:27;;;;;;;34.92;17.73;;;1.50;99.90;;;;;;5052982;28;20513;-84
2022/01/16 00:22:54;;;;;;;38.50;18.95;;;1.50;99.90;;;;;;5056562;28;20212;-84
2022/01/16 00:25:22;;;;;;;42.58;18.40;;;1.40;99.90;;;;;;5055147;28;20221;-85
2022/01/16 00:27:49;;;;;;;39.88;19.77;;;1.20;99.90;;;;;;5054222;28;20228;-85
2022/01/16 00:30:17;;;;;;;55.95;20.30;;;1.20;99.90;;;;;;5054110;28;20197;-83
2022/01/16 00:32:44;;;;;;;47.42;19.00;;;1.20;99.90;;;;;;5050131;28;20219;-84
2022/01/16 00:35:12;;;;;;;46.90;20.33;;;1.20;99.90;;;;;;5054831;28;20212;-86
2022/01/16 00:37:39;;;;;;;67.93;22.83;;;1.10;99.90;;;;;;5056190;28;20231;-84
2022/01/16 00:40:07;;;;;;;48.97;20.95;;;1.00;99.90;;;;;;5048831;28;20220;-82
2022/01/16 00:42:35;;;;;;;33.30;16.52;;;1.10;99.90;;;;;;5050255;28;20202;-83
2022/01/16 00:45:02;;;;;;;31.65;18.27;;;1.10;99.90;;;;;;5048564;28;20589;-85
2022/01/16 00:47:29;;;;;;;33.00;15.23;;;1.10;99.90;;;;;;5050198;28;20298;-85
2022/01/16 00:49:56;;;;;;;37.67;19.67;;;1.20;99.90;;;;;;5051070;28;20199;-86
2022/01/16 00:52:23;;;;;;;35.97;18.55;;;1.20;99.90;;;;;;5051026;28;20204;-84
2022/01/16 00:54:50;;;;;;;30.83;17.25;;;1.20;99.90;;;;;;5050474;28;20220;-83
2022/01/16 00:57:16;;;;;;;31.02;17.42;;;1.20;99.90;;;;;;5054160;28;20223;-83
2022/01/16 00:59:44;;;;;;;27.38;17.13;;;1.30;99.90;;;;;;5052761;28;20203;-85
2022/01/16 01:02:11;;;;;;;38.60;17.65;;;1.30;99.90;;;;;;5054891;28;20205;-86
2022/01/16 01:04:38;;;;;;;39.95;17.48;;;1.40;99.90;;;;;;5047001;28;20223;-85
2022/01/16 01:07:05;;;;;;;41.42;15.68;;;1.30;99.90;;;;;;5054945;28;20221;-84
2022/01/16 01:09:31;;;;;;;30.73;16.60;;;1.20;99.90;;;;;;5054652;28;20206;-84
2022/01/16 01:11:58;;;;;;;33.28;14.75;;;1.20;99.90;;;;;;5052346;28;20211;-83
2022/01/16 01:14:37;;;;;;;31.45;17.80;;;1.20;99.90;;;;;;5054525;28;20206;-85
2022/01/16 01:17:08;;;;;;;26.63;15.15;;;1.30;99.90;;;;;;5054950;28;20226;-85
2022/01/16 01:19:35;;;;;;;29.45;16.52;;;1.40;99.90;;;;;;5048280;28;20219;-83
2022/01/16 01:22:04;;;;;;;30.67;15.77;;;1.30;99.90;;;;;;5052193;28;20562;-84
2022/01/16 01:24:33;;;;;;;27.65;18.55;;;1.40;99.90;;;;;;5049330;28;20268;-83
2022/01/16 01:27:11;;;;;;;33.88;16.17;;;1.40;99.90;;;;;;5042794;28;20199;-84
2022/01/16 01:29:40;;;;;;;27.88;16.98;;;1.40;99.90;;;;;;5045945;28;20225;-84
2022/01/16 01:32:09;;;;;;;28.58;14.90;;;1.40;99.90;;;;;;5047151;28;20712;-84
2022/01/16 01:34:37;;;;;;;55.40;18.50;;;1.40;99.90;;;;;;5049174;28;20205;-84
2022/01/16 01:37:04;;;;;;;68.97;21.98;;;1.30;99.90;;;;;;5048951;28;20203;-84
2022/01/16 01:39:31;;;;;;;47.25;17.35;;;0.90;99.90;;;;;;5044044;28;20687;-83
2022/01/16 01:42:06;;;;;;;41.22;17.92;;;0.70;99.90;;;;;;5049595;28;20199;-84
2022/01/16 01:52:48;;;;;;;52.42;18.52;;;0.60;99.90;;;;;;5046924;28;20623;-84
2022/01/16 01:55:15;;;;;;;46.30;16.77;;;0.30;99.90;;;;;;5044762;28;20206;-84
2022/01/16 01:57:41;;;;;;;42.58;18.42;;;0.40;99.90;;;;;;5044441;28;20230;-83
2022/01/16 02:00:09;;;;;;;39.42;16.40;;;0.10;99.90;;;;;;5048592;28;20195;-84
2022/01/16 02:02:49;;;;;;;35.45;17.73;;;0.30;99.90;;;;;;5046375;28;20202;-84
2022/01/16 02:05:15;;;;;;;34.42;17.13;;;0.50;99.90;;;;;;5048037;28;20221;-82
2022/01/16 02:07:42;;;;;;;28.02;18.15;;;0.30;99.90;;;;;;5048706;28;20221;-83
2022/01/16 02:10:09;;;;;;;24.13;14.40;;;0.40;99.90;;;;;;5048172;28;20206;-83
2022/01/16 02:12:41;;;;;;;43.08;20.10;;;0.50;99.90;;;;;;5049549;28;20198;-82
2022/01/16 02:15:32;;;;;;;34.28;17.73;;;0.60;99.90;;;;;;5044100;28;20199;-83
2022/01/16 02:29:25;;;;;;;41.80;17.92;;;0.30;99.90;;;;;;5028258;28;20226;-81
2022/01/16 02:31:47;;;;;;;37.63;17.25;;;0.20;99.90;;;;;;5012719;28;20294;-81
2022/01/16 02:36:58;;;;;;;35.83;18.75;;;0.10;99.90;;;;;;5011515;28;20226;-81
2022/01/16 02:39:27;;;;;;;35.75;16.92;;;-0.10;99.90;;;;;;5031628;28;20210;-81
2022/01/16 02:41:56;;;;;;;43.20;19.10;;;-0.10;99.90;;;;;;5029236;28;20218;-81
2022/01/16 02:44:31;;;;;;;37.80;20.55;;;0.00;99.90;;;;;;5013174;28;20229;-81
2022/01/16 02:46:59;;;;;;;32.33;18.58;;;0.10;99.90;;;;;;5028974;28;20363;-82
2022/01/16 02:49:28;;;;;;;31.02;18.40;;;0.20;99.90;;;;;;5037061;28;20210;-83
2022/01/16 02:51:57;;;;;;;35.92;18.90;;;0.40;99.90;;;;;;5035391;28;20408;-83
2022/01/16 02:54:24;;;;;;;31.23;18.92;;;0.40;99.90;;;;;;5017853;28;20211;-82
2022/01/16 02:56:52;;;;;;;31.73;17.05;;;0.40;99.90;;;;;;5019741;28;20206;-81
2022/01/16 02:59:21;;;;;;;31.20;17.33;;;0.50;99.90;;;;;;5032852;28;20229;-82
2022/01/16 03:01:47;;;;;;;46.60;20.55;;;0.60;99.90;;;;;;5027618;28;20212;-81
2022/01/16 03:04:14;;;;;;;34.50;19.42;;;0.60;99.90;;;;;;5033319;28;20222;-82
2022/01/16 03:06:41;;;;;;;37.17;18.33;;;0.60;99.90;;;;;;5024414;28;20201;-82
2022/01/16 03:09:09;;;;;;;24.45;17.02;;;0.50;99.90;;;;;;5017786;28;20228;-82
2022/01/16 03:11:37;;;;;;;32.15;17.50;;;0.60;99.90;;;;;;5021495;28;20225;-81
2022/01/16 03:14:08;;;;;;;36.25;18.67;;;0.50;99.90;;;;;;5033635;28;20234;-81
2022/01/16 03:16:36;;;;;;;41.60;18.60;;;0.60;99.90;;;;;;5031895;28;20199;-80
2022/01/16 03:21:54;;;;;;;24.15;16.90;;;0.70;99.90;;;;;;5039867;28;20219;-82
2022/01/16 03:24:21;;;;;;;41.58;18.90;;;0.70;99.90;;;;;;5049373;28;20230;-81
2022/01/16 03:26:47;;;;;;;29.42;16.75;;;0.70;99.90;;;;;;5045562;28;20184;-79
2022/01/16 03:29:15;;;;;;;35.13;17.88;;;0.70;99.90;;;;;;5031899;28;20219;-83
2022/01/16 03:31:42;;;;;;;39.55;18.92;;;0.60;99.90;;;;;;5022611;28;20201;-82
2022/01/16 03:34:09;;;;;;;28.80;17.90;;;0.50;99.90;;;;;;5018126;28;20558;-83
2022/01/16 03:36:35;;;;;;;39.35;19.35;;;0.40;99.90;;;;;;5021557;28;20288;-83
2022/01/16 03:39:04;;;;;;;30.02;18.67;;;0.30;99.90;;;;;;5022277;28;20238;-83
2022/01/16 03:41:33;;;;;;;40.03;20.13;;;0.30;99.90;;;;;;5030406;28;20206;-83
2022/01/16 03:44:02;;;;;;;25.77;16.55;;;0.30;99.90;;;;;;5042042;28;20207;-83
2022/01/16 03:46:34;;;;;;;31.20;16.45;;;0.30;99.90;;;;;;5025513;28;20310;-82
2022/01/16 03:49:02;;;;;;;31.20;18.80;;;0.40;99.90;;;;;;5031804;28;20222;-83
2022/01/16 03:51:29;;;;;;;20.20;15.30;;;0.40;99.90;;;;;;5040605;28;20206;-82
2022/01/16 03:53:56;;;;;;;42.38;18.15;;;0.40;99.90;;;;;;5037166;28;20612;-82
2022/01/16 03:56:23;;;;;;;32.40;17.48;;;0.40;99.90;;;;;;5040871;28;20198;-82
2022/01/16 03:58:50;;;;;;;25.88;16.67;;;0.40;99.90;;;;;;5023960;28;20224;-82
2022/01/16 04:01:17;;;;;;;26.40;16.73;;;0.40;99.90;;;;;;5026501;28;20697;-82
2022/01/16 04:03:45;;;;;;;22.02;15.38;;;0.40;99.90;;;;;;5039767;28;20207;-82
2022/01/16 04:06:12;;;;;;;24.90;15.98;;;0.40;99.90;;;;;;5034954;28;20593;-82
2022/01/16 04:08:39;;;;;;;24.45;15.60;;;0.30;99.90;;;;;;5019853;28;20230;-82
2022/01/16 04:11:05;;;;;;;26.52;15.68;;;0.40;99.90;;;;;;5019568;28;20214;-82
2022/01/16 04:13:32;;;;;;;46.53;19.58;;;0.40;99.90;;;;;;5019669;28;20265;-82
2022/01/16 04:15:59;;;;;;;24.25;14.05;;;0.40;99.90;;;;;;5037946;28;20262;-82
2022/01/16 04:18:26;;;;;;;23.88;16.70;;;0.50;99.90;;;;;;5039123;28;20233;-82
2022/01/16 04:20:54;;;;;;;23.83;17.38;;;0.40;99.90;;;;;;5039060;28;20306;-82
2022/01/16 04:23:21;;;;;;;43.17;17.77;;;0.40;99.90;;;;;;5039950;28;20222;-83
2022/01/16 04:25:48;;;;;;;30.55;18.58;;;0.40;99.90;;;;;;5039264;28;20226;-82
2022/01/16 04:28:14;;;;;;;31.52;15.95;;;0.40;99.90;;;;;;5039325;28;20223;-82
2022/01/16 04:30:41;;;;;;;23.35;17.15;;;0.40;99.90;;;;;;5037284;28;20702;-82
2022/01/16 04:33:08;;;;;;;27.83;15.45;;;0.40;99.90;;;;;;5019895;28;20214;-82
2022/01/16 04:35:34;;;;;;;46.25;19.20;;;0.40;99.90;;;;;;5019564;28;20207;-83
2022/01/16 04:38:03;;;;;;;31.33;17.50;;;0.40;99.90;;;;;;5019543;28;20227;-82
2022/01/16 04:40:31;;;;;;;56.80;19.25;;;0.40;99.90;;;;;;5019827;28;20226;-82
2022/01/16 04:45:50;;;;;;;22.73;15.05;;;0.00;99.90;;;;;;4984270;28;20281;-82
2022/01/16 04:48:16;;;;;;;29.15;16.08;;;-0.10;99.90;;;;;;5019086;28;20234;-82
2022/01/16 04:50:43;;;;;;;30.50;16.88;;;0.00;99.90;;;;;;5020970;28;20211;-82
2022/01/16 04:53:11;;;;;;;39.78;18.23;;;0.10;99.90;;;;;;5020050;28;20207;-82
2022/01/16 04:55:38;;;;;;;46.58;18.55;;;0.10;99.90;;;;;;5034624;28;20194;-82
2022/01/16 04:58:04;;;;;;;46.25;20.00;;;0.20;99.90;;;;;;5039573;28;20568;-82
2022/01/16 05:00:31;;;;;;;34.10;15.80;;;0.10;99.90;;;;;;5025945;28;20210;-82
2022/01/16 05:02:58;;;;;;;36.33;16.83;;;-0.10;99.90;;;;;;5019310;28;20224;-82
2022/01/16 05:05:25;;;;;;;46.53;18.67;;;0.00;99.90;;;;;;5032858;28;20229;-82
2022/01/16 05:07:51;;;;;;;28.70;17.48;;;0.00;99.90;;;;;;5039189;28;20226;-82
2022/01/16 05:10:19;;;;;;;41.28;19.33;;;-0.10;99.90;;;;;;5029791;28;20203;-83
2022/01/16 05:12:50;;;;;;;45.42;17.20;;;-0.30;99.90;;;;;;5019398;28;20212;-82
2022/01/16 05:18:01;;;;;;;27.42;15.77;;;-0.30;99.90;;;;;;5019038;28;20225;-82
2022/01/16 05:20:29;;;;;;;36.28;18.00;;;-0.30;99.90;;;;;;5018712;28;20262;-82
2022/01/16 05:22:55;;;;;;;27.95;17.58;;;-0.50;99.90;;;;;;5019856;28;20210;-82
2022/01/16 05:25:24;;;;;;;28.40;15.70;;;-0.40;99.90;;;;;;5019571;28;20228;-82
2022/01/16 05:27:51;;;;;;;27.52;17.33;;;-0.40;99.90;;;;;;5018802;28;20227;-82
2022/01/16 05:30:18;;;;;;;27.05;16.15;;;-0.30;99.90;;;;;;5020312;28;20203;-82
2022/01/16 05:32:44;;;;;;;22.92;15.80;;;-0.20;99.90;;;;;;5035819;28;20245;-82
2022/01/16 05:35:11;;;;;;;28.23;16.42;;;-0.30;99.90;;;;;;5037875;28;20195;-82
2022/01/16 05:37:38;;;;;;;23.90;16.05;;;-0.30;99.90;;;;;;5039430;28;20238;-82
2022/01/16 05:40:07;;;;;;;36.53;18.13;;;-0.30;99.90;;;;;;5028346;28;20210;-82
2022/01/16 05:42:35;;;;;;;29.63;16.17;;;-0.30;99.90;;;;;;5019129;28;20215;-82
2022/01/16 05:45:02;;;;;;;21.23;15.23;;;-0.30;99.90;;;;;;5018707;28;20199;-82
2022/01/16 05:47:29;;;;;;;31.20;15.45;;;-0.30;99.90;;;;;;5019061;28;20231;-82
2022/01/16 05:49:55;;;;;;;21.13;14.85;;;-0.40;99.90;;;;;;5019611;28;20210;-82
2022/01/16 05:52:22;;;;;;;18.65;13.57;;;-0.40;99.90;;;;;;5018928;28;20681;-82
2022/01/16 05:54:49;;;;;;;21.85;14.68;;;-0.40;99.90;;;;;;5018835;28;20207;-82
2022/01/16 05:57:16;;;;;;;19.60;14.52;;;-0.50;99.90;;;;;;5035477;28;20199;-83
2022/01/16 05:59:44;;;;;;;26.33;15.48;;;-0.40;99.90;;;;;;5037795;28;20210;-82
2022/01/16 06:02:11;;;;;;;21.33;15.38;;;-0.40;99.90;;;;;;5037587;28;20209;-81
2022/01/16 06:04:37;;;;;;;23.63;14.13;;;-0.50;99.90;;;;;;5038038;28;20206;-83
2022/01/16 06:07:05;;;;;;;42.20;20.23;;;-0.50;99.90;;;;;;5038122;28;20654;-81
2022/01/16 06:09:32;;;;;;;30.45;18.92;;;-0.70;99.90;;;;;;5037005;28;20206;-82
2022/01/16 06:11:59;;;;;;;38.83;15.95;;;-0.90;99.90;;;;;;5037106;28;20207;-83
2022/01/16 06:14:26;;;;;;;26.95;17.83;;;-0.90;99.90;;;;;;5024562;28;20205;-81
2022/01/16 06:16:54;;;;;;;26.30;17.08;;;-0.80;99.90;;;;;;5016669;28;20214;-82
2022/01/16 06:19:21;;;;;;;28.23;16.65;;;-0.70;99.90;;;;;;5016443;28;20240;-82
2022/01/16 06:21:48;;;;;;;23.20;14.65;;;-0.70;99.90;;;;;;5016735;28;20209;-81
2022/01/16 06:24:15;;;;;;;22.55;15.30;;;-0.70;99.90;;;;;;5025380;28;20213;-82
2022/01/16 06:26:42;;;;;;;22.50;15.07;;;-0.70;99.90;;;;;;5036969;28;20226;-82
2022/01/16 06:29:09;;;;;;;21.02;16.00;;;-0.60;99.90;;;;;;5036364;28;20634;-81
2022/01/16 06:31:36;;;;;;;22.23;15.70;;;-0.70;99.90;;;;;;5035505;28;20209;-82
2022/01/16 06:34:06;;;;;;;25.08;16.70;;;-0.60;99.90;;;;;;5035173;28;20665;-82
2022/01/16 06:36:34;;;;;;;24.52;16.45;;;-0.60;99.90;;;;;;5025893;28;20202;-82
2022/01/16 06:39:00;;;;;;;23.05;15.65;;;-0.70;99.90;;;;;;5021038;28;20228;-82
2022/01/16 06:41:27;;;;;;;23.05;15.70;;;-0.70;99.90;;;;;;5028133;28;20292;-82
2022/01/16 06:43:54;;;;;;;23.85;16.05;;;-0.70;99.90;;;;;;5038704;28;20297;-83
2022/01/16 06:46:21;;;;;;;23.25;15.63;;;-0.70;99.90;;;;;;5037328;28;20222;-83
2022/01/16 06:48:48;;;;;;;20.42;15.93;;;-0.70;99.90;;;;;;5030389;28;20223;-83
2022/01/16 06:51:18;;;;;;;26.08;16.67;;;-0.70;99.90;;;;;;5016084;28;20215;-82
2022/01/16 06:53:45;;;;;;;26.45;16.55;;;-0.70;99.90;;;;;;5015710;28;20203;-83
2022/01/16 06:56:12;;;;;;;20.30;16.38;;;-0.80;99.90;;;;;;5015602;28;20213;-81
2022/01/16 06:58:38;;;;;;;26.20;17.80;;;-0.80;99.90;;;;;;5019326;28;20223;-82
2022/01/16 07:01:05;;;;;;;26.63;17.27;;;-0.80;99.90;;;;;;5033943;28;20208;-82
2022/01/16 07:03:32;;;;;;;26.08;17.30;;;-0.80;99.90;;;;;;5034678;28;20207;-82
2022/01/16 07:06:00;;;;;;;22.60;17.05;;;-0.90;99.90;;;;;;5035296;28;20222;-82
2022/01/16 07:08:28;;;;;;;31.10;18.52;;;-1.00;99.90;;;;;;5022514;28;20712;-82
2022/01/16 07:10:56;;;;;;;22.55;15.68;;;-1.00;99.90;;;;;;5015691;28;20215;-82
2022/01/16 07:13:23;;;;;;;22.80;16.13;;;-1.00;99.90;;;;;;5034660;28;20233;-82
2022/01/16 07:15:50;;;;;;;25.45;17.92;;;-1.00;99.90;;;;;;5035887;28;20202;-82
2022/01/16 07:18:17;;;;;;;22.23;18.05;;;-1.00;99.90;;;;;;5051848;22;20592;-84
2022/01/16 07:20:44;;;;;;;20.55;14.65;;;-1.00;99.90;;;;;;5018999;28;20206;-83
2022/01/16 07:23:12;;;;;;;25.42;17.35;;;-1.10;99.90;;;;;;5020039;28;20548;-84
2022/01/16 07:25:40;;;;;;;22.00;17.55;;;-1.20;99.90;;;;;;5020280;28;20226;-84
2022/01/16 07:28:08;;;;;;;20.17;16.40;;;-1.20;99.90;;;;;;5019975;28;20747;-84
2022/01/16 07:30:36;;;;;;;25.20;16.25;;;-1.20;99.90;;;;;;5020129;28;20204;-82
2022/01/16 07:33:03;;;;;;;23.83;16.20;;;-1.30;99.90;;;;;;5020352;28;20215;-82
2022/01/16 07:35:30;;;;;;;22.85;17.80;;;-1.20;99.90;;;;;;5022841;28;20579;-84
2022/01/16 07:37:57;;;;;;;22.50;15.73;;;-1.20;99.90;;;;;;5019139;28;20247;-84
2022/01/16 07:40:24;;;;;;;23.08;15.50;;;-1.20;99.90;;;;;;5016656;28;20207;-84
2022/01/16 07:42:53;;;;;;;23.70;15.93;;;-1.10;99.90;;;;;;4998869;28;20199;-83
2022/01/16 07:45:19;;;;;;;25.40;17.17;;;-1.10;99.90;;;;;;5000964;28;20218;-84
2022/01/16 07:47:46;;;;;;;23.52;16.60;;;-1.10;99.90;;;;;;5021667;28;20245;-83
2022/01/16 07:50:15;;;;;;;26.38;15.02;;;-1.10;99.90;;;;;;5020033;28;20210;-83
2022/01/16 07:52:42;;;;;;;23.55;16.02;;;-1.00;99.90;;;;;;5019980;28;20207;-83
2022/01/16 07:55:09;;;;;;;23.08;15.77;;;-1.00;99.90;;;;;;5021207;28;20242;-83
2022/01/16 07:57:36;;;;;;;26.10;16.55;;;-1.00;99.90;;;;;;5019700;28;20275;-84
2022/01/16 08:00:07;;;;;;;21.67;14.68;;;-0.90;99.90;;;;;;5022222;28;20207;-84
2022/01/16 08:02:34;;;;;;;24.38;15.48;;;-0.80;99.90;;;;;;5033448;28;20194;-85
2022/01/16 08:05:00;;;;;;;18.70;14.18;;;-0.70;99.90;;;;;;5032628;28;20203;-84
2022/01/16 08:07:27;;;;;;;21.50;14.13;;;-0.70;99.90;;;;;;5022676;28;20329;-84
2022/01/16 08:09:54;;;;;;;23.48;16.35;;;-0.80;99.90;;;;;;5021521;28;20210;-84
2022/01/16 08:12:21;;;;;;;24.95;16.02;;;-0.80;99.90;;;;;;5020711;28;20210;-84
2022/01/16 08:14:47;;;;;;;22.85;16.58;;;-0.70;99.90;;;;;;5021012;28;20219;-84
2022/01/16 08:17:15;;;;;;;17.52;14.60;;;-0.80;99.90;;;;;;5021780;28;20207;-84
2022/01/16 08:19:42;;;;;;;24.15;16.88;;;-0.70;99.90;;;;;;5021407;28;20239;-83
2022/01/16 08:22:10;;;;;;;29.90;17.73;;;-0.70;99.90;;;;;;5025617;28;20208;-84
2022/01/16 08:24:38;;;;;;;25.05;17.88;;;-0.70;99.90;;;;;;5029984;28;20203;-84
2022/01/16 08:27:05;;;;;;;29.15;18.30;;;-0.70;99.90;;;;;;5030875;28;20295;-84
2022/01/16 08:29:32;;;;;;;24.35;18.50;;;-1.00;99.90;;;;;;5031415;28;20315;-82
2022/01/16 08:31:59;;;;;;;30.10;18.80;;;-1.00;99.90;;;;;;5030545;28;20214;-83
2022/01/16 08:34:27;;;;;;;28.90;18.70;;;-1.00;99.90;;;;;;5031176;28;20211;-84
2022/01/16 08:36:54;;;;;;;28.38;20.15;;;-1.10;99.90;;;;;;5030920;28;20194;-84
2022/01/16 08:39:21;;;;;;;26.38;19.10;;;-1.00;99.90;;;;;;5031979;28;20223;-84
2022/01/16 08:41:47;;;;;;;26.55;16.23;;;-0.90;99.90;;;;;;5034073;28;20211;-84
2022/01/16 08:44:14;;;;;;;24.55;17.75;;;-0.70;99.90;;;;;;5035250;28;20206;-84
2022/01/16 08:46:41;;;;;;;30.42;18.02;;;-0.50;99.90;;;;;;5031430;28;20223;-85
2022/01/16 08:49:08;;;;;;;21.45;17.23;;;-0.50;99.90;;;;;;5031142;28;20232;-84
2022/01/16 08:51:36;;;;;;;24.98;17.27;;;-0.50;99.90;;;;;;5029181;28;20214;-84
2022/01/16 08:54:04;;;;;;;22.38;18.00;;;-0.30;99.90;;;;;;5031813;28;20212;-85
2022/01/16 08:56:30;;;;;;;24.30;19.65;;;-0.20;99.90;;;;;;5028431;28;20295;-84
2022/01/16 08:58:57;;;;;;;26.63;18.05;;;-0.10;99.90;;;;;;5026916;28;20231;-83
2022/01/16 09:01:24;;;;;;;23.92;16.38;;;-0.20;99.90;;;;;;5029605;28;20211;-83
2022/01/16 09:03:51;;;;;;;27.73;19.17;;;-0.30;99.90;;;;;;5026514;28;20313;-83
2022/01/16 09:06:19;;;;;;;27.92;18.33;;;-0.30;99.90;;;;;;5026552;28;20224;-84
2022/01/16 09:08:56;;;;;;;25.17;19.40;;;-0.20;99.90;;;;;;5028142;28;20278;-84
2022/01/16 09:11:25;;;;;;;22.05;16.50;;;-0.30;99.90;;;;;;5027148;28;20219;-85
2022/01/16 09:13:53;;;;;;;27.58;18.52;;;-0.10;99.90;;;;;;5028972;28;20206;-84
2022/01/16 09:16:21;;;;;;;23.85;17.52;;;0.00;99.90;;;;;;5030771;28;20633;-84
2022/01/16 09:18:48;;;;;;;25.02;17.73;;;0.10;99.90;;;;;;5033261;28;20247;-84
2022/01/16 09:21:16;;;;;;;26.23;18.77;;;0.30;99.90;;;;;;5033667;28;20202;-84
2022/01/16 09:23:44;;;;;;;26.02;17.50;;;0.50;99.90;;;;;;5034160;28;20197;-83
2022/01/16 09:26:18;;;;;;;21.50;15.65;;;0.60;99.90;;;;;;5035500;28;20606;-85
2022/01/16 09:28:45;;;;;;;20.90;16.20;;;0.70;99.90;;;;;;5031328;28;20726;-82
2022/01/16 09:31:12;;;;;;;21.30;14.63;;;1.10;99.90;;;;;;5028299;28;20218;-83
2022/01/16 09:33:39;;;;;;;18.60;14.13;;;1.40;99.90;;;;;;5037951;28;20192;-82
2022/01/16 09:36:07;;;;;;;22.17;16.90;;;1.70;99.90;;;;;;5039216;28;20270;-81
2022/01/16 09:39:01;;;;;;;20.58;18.23;;;2.00;99.90;;;;;;5032470;28;20221;-84
2022/01/16 09:44:51;;;;;;;17.65;14.95;;;2.30;99.90;;;;;;5030603;28;20201;-83
2022/01/16 09:47:52;;;;;;;15.65;14.05;;;2.40;99.90;;;;;;5037246;28;20257;-82
2022/01/16 09:50:23;;;;;;;20.63;14.30;;;2.70;99.90;;;;;;5031999;28;20205;-83
2022/01/16 09:52:51;;;;;;;21.45;15.57;;;3.00;99.90;;;;;;5026664;28;20201;-83
2022/01/16 09:55:20;;;;;;;18.88;16.20;;;3.10;99.90;;;;;;5027095;28;20209;-83
2022/01/16 09:57:49;;;;;;;20.67;14.48;;;3.20;99.90;;;;;;5036004;28;20246;-82
2022/01/16 10:00:17;;;;;;;16.52;14.80;;;3.40;99.90;;;;;;5037418;28;20198;-82
2022/01/16 10:02:45;;;;;;;16.23;14.40;;;3.50;99.90;;;;;;5033121;28;20199;-83
2022/01/16 10:05:28;;;;;;;14.80;13.30;;;3.60;99.90;;;;;;5025769;28;20211;-83
2022/01/16 10:07:56;;;;;;;21.08;15.52;;;3.80;99.90;;;;;;5015039;28;20262;-83
2022/01/16 10:10:26;;;;;;;17.17;14.38;;;3.80;99.90;;;;;;5007043;28;20231;-83
2022/01/16 10:12:57;;;;;;;21.92;15.98;;;3.90;99.90;;;;;;5022241;28;20290;-83
2022/01/16 10:15:30;;;;;;;19.70;15.77;;;3.90;99.90;;;;;;5023068;28;20679;-83
2022/01/16 10:17:59;;;;;;;20.10;16.48;;;4.00;99.90;;;;;;5021627;28;20231;-82
2022/01/16 10:20:27;;;;;;;23.55;16.25;;;4.20;99.90;;;;;;5024909;28;20212;-83
2022/01/16 10:22:55;;;;;;;18.20;15.15;;;4.20;99.90;;;;;;5033642;28;20214;-82
2022/01/16 10:25:38;;;;;;;18.85;16.98;;;4.20;99.90;;;;;;5035693;28;20191;-82
2022/01/16 10:28:13;;;;;;;19.77;16.27;;;4.30;99.90;;;;;;5025553;28;20235;-82
2022/01/16 10:30:41;;;;;;;17.98;16.10;;;4.40;99.90;;;;;;5023941;28;20221;-83
2022/01/16 10:33:11;;;;;;;17.95;15.77;;;4.60;99.90;;;;;;5021667;28;20203;-82
2022/01/16 10:35:40;;;;;;;19.88;15.50;;;4.70;99.90;;;;;;5014901;28;20204;-82
2022/01/16 10:38:10;;;;;;;18.45;15.43;;;4.70;99.90;;;;;;5008225;28;20219;-82
2022/01/16 10:40:40;;;;;;;17.92;16.02;;;4.80;99.90;;;;;;5022452;28;20207;-82
2022/01/16 10:43:15;;;;;;;18.63;16.10;;;4.80;99.90;;;;;;5019195;28;20238;-83
2022/01/16 10:45:43;;;;;;;21.10;16.38;;;4.70;99.90;;;;;;5020537;28;20269;-83
2022/01/16 10:48:12;;;;;;;21.52;17.55;;;4.40;99.90;;;;;;5023288;28;20611;-82
2022/01/16 10:50:40;;;;;;;21.40;15.35;;;4.40;99.90;;;;;;5023349;28;20772;-82
2022/01/16 10:53:08;;;;;;;21.15;17.83;;;4.50;99.90;;;;;;5023042;28;20214;-82
2022/01/16 10:55:40;;;;;;;21.02;16.00;;;4.80;99.90;;;;;;5023403;28;20207;-82
2022/01/16 10:58:11;;;;;;;20.42;17.20;;;4.90;99.90;;;;;;5022116;28;20249;-82
2022/01/16 11:00:41;;;;;;;21.65;15.88;;;4.80;99.90;;;;;;5020222;28;20215;-82
2022/01/16 11:03:10;;;;;;;16.67;15.25;;;4.90;99.90;;;;;;5018342;28;20695;-83
2022/01/16 11:05:38;;;;;;;16.20;13.98;;;4.90;99.90;;;;;;5023853;28;20211;-82
2022/01/16 11:08:07;;;;;;;18.77;14.90;;;4.70;99.90;;;;;;5020406;28;20671;-82
2022/01/16 11:10:36;;;;;;;22.60;17.98;;;4.60;99.90;;;;;;5020993;28;20210;-82
2022/01/16 11:13:05;;;;;;;20.05;15.45;;;4.40;99.90;;;;;;5010255;28;20209;-82
2022/01/16 11:15:36;;;;;;;19.98;15.48;;;4.30;99.90;;;;;;5018971;28;20211;-82
2022/01/16 11:18:05;;;;;;;20.20;14.32;;;4.40;99.90;;;;;;5017773;28;20416;-83
2022/01/16 11:20:57;;;;;;;24.27;17.10;;;4.30;99.90;;;;;;5020330;28;20614;-82
2022/01/16 11:23:31;;;;;;;18.45;13.35;;;4.40;99.90;;;;;;5022157;28;20234;-81
2022/01/16 11:26:00;;;;;;;21.98;16.45;;;4.10;99.90;;;;;;5019415;28;20201;-82
2022/01/16 11:28:27;;;;;;;19.35;16.42;;;4.20;99.90;;;;;;5016990;28;20237;-82
2022/01/16 11:30:57;;;;;;;23.20;15.13;;;4.20;99.90;;;;;;5018718;28;20218;-82
2022/01/16 11:33:48;;;;;;;22.42;16.05;;;4.00;99.90;;;;;;5020407;28;20214;-82
2022/01/16 11:36:54;;;;;;;21.13;17.38;;;4.10;99.90;;;;;;5021237;28;20355;-82
2022/01/16 11:39:45;;;;;;;24.00;15.45;;;4.00;99.90;;;;;;5021426;28;20246;-82
2022/01/16 11:42:23;;;;;;;18.58;13.98;;;4.00;99.90;;;;;;5022605;28;20199;-82
2022/01/16 11:44:54;;;;;;;20.08;15.73;;;3.90;99.90;;;;;;5029609;28;20215;-81
2022/01/16 11:47:22;;;;;;;19.23;16.08;;;3.80;99.90;;;;;;5029993;28;20237;-81
2022/01/16 11:49:48;;;;;;;22.92;19.95;;;3.60;99.90;;;;;;5031302;28;20226;-81
2022/01/16 11:52:18;;;;;;;22.80;19.20;;;3.60;99.90;;;;;;5027273;28;20211;-83
2022/01/16 11:54:47;;;;;;;15.60;13.32;;;3.50;99.90;;;;;;5028779;28;20202;-83
2022/01/16 11:57:24;;;;;;;21.17;16.63;;;3.50;99.90;;;;;;5028568;28;20206;-83
2022/01/16 11:59:55;;;;;;;20.75;17.05;;;3.30;99.90;;;;;;5030408;28;20217;-82
2022/01/16 12:02:27;;;;;;;21.38;15.32;;;3.20;99.90;;;;;;5027666;28;20192;-83
2022/01/16 12:05:21;;;;;;;22.48;16.55;;;3.10;99.90;;;;;;5031681;28;20212;-82
2022/01/16 12:07:53;;;;;;;20.08;11.73;;;3.10;99.90;;;;;;5029869;28;20317;-83
2022/01/16 12:10:41;;;;;;;20.63;15.93;;;3.00;99.90;;;;;;5031794;28;20217;-82
2022/01/16 12:13:38;;;;;;;18.98;16.80;;;2.90;99.90;;;;;;5031498;28;20193;-83
2022/01/16 12:16:32;;;;;;;20.92;17.88;;;2.90;99.90;;;;;;5030287;28;20211;-83
2022/01/16 12:19:41;;;;;;;18.52;12.07;;;2.80;99.90;;;;;;4951194;28;20237;-83
2022/01/16 12:22:09;;;;;;;19.17;14.20;;;2.60;99.90;;;;;;5015416;28;20208;-83
2022/01/16 12:24:40;;;;;;;14.65;10.50;;;2.40;99.90;;;;;;5026080;28;20221;-82
2022/01/16 12:27:38;;;;;;;21.67;10.25;;;2.30;99.90;;;;;;5020385;28;20235;-83
2022/01/16 12:30:33;;;;;;;13.50;8.40;;;2.20;99.90;;;;;;5010405;28;20203;-81
2022/01/16 12:33:25;;;;;;;22.27;15.18;;;2.20;99.90;;;;;;5000513;28;20215;-79
2022/01/16 12:36:10;;;;;;;18.45;15.38;;;2.20;99.90;;;;;;5003109;28;20201;-82
2022/01/16 12:38:43;;;;;;;24.92;18.63;;;2.00;99.90;;;;;;5018943;28;20223;-82
2022/01/16 12:41:11;;;;;;;24.85;11.07;;;2.10;99.90;;;;;;5020695;28;20208;-82
2022/01/16 12:43:43;;;;;;;13.80;9.35;;;2.10;99.90;;;;;;5022841;28;20214;-83
2022/01/16 12:46:12;;;;;;;11.98;10.55;;;2.10;99.90;;;;;;5021737;28;20209;-82
2022/01/16 12:48:41;;;;;;;9.02;5.95;;;2.10;99.90;;;;;;5021490;28;20276;-83
2022/01/16 12:51:09;;;;;;;15.38;9.73;;;2.10;99.90;;;;;;5024973;28;20270;-83
2022/01/16 12:53:41;;;;;;;16.60;12.65;;;2.10;99.90;;;;;;5034908;28;20196;-81
2022/01/16 12:56:26;;;;;;;15.25;12.50;;;2.20;99.90;;;;;;5030497;28;20214;-84
2022/01/16 12:58:55;;;;;;;14.85;9.57;;;2.30;99.90;;;;;;5030225;28;20259;-83
2022/01/16 13:02:17;;;;;;;17.67;11.13;;;2.30;99.90;;;;;;5024660;28;20212;-84
2022/01/16 13:05:04;;;;;;;10.27;7.80;;;2.40;99.90;;;;;;5001529;28;20733;-84
2022/01/16 13:07:43;;;;;;;13.55;6.32;;;2.40;99.90;;;;;;5001642;28;20240;-84
2022/01/16 13:20:47;;;;;;;9.40;7.72;;;2.70;99.90;;;;;;4997891;23;20238;-84
2022/01/16 13:30:26;;;;;;;10.00;7.18;;;2.80;99.90;;;;;;5023383;28;20224;-84
2022/01/16 13:33:23;;;;;;;10.88;7.00;;;2.90;99.90;;;;;;5024055;28;20239;-84
2022/01/16 13:36:08;;;;;;;12.27;8.27;;;2.90;99.90;;;;;;5023656;28;20214;-84
2022/01/16 13:38:35;;;;;;;10.23;7.72;;;3.00;99.90;;;;;;5026798;28;20235;-85
2022/01/16 13:41:02;;;;;;;12.30;9.55;;;2.90;99.90;;;;;;5044166;28;20224;-84